Latest Coastal Weather Observations for McCluer Island

IDD60701

Issued at 5:05 am CST Saturday 23 August 2014 (issued every 10 minutes, with the page automatically refreshed every 10 minutes)

About coastal observations | Map of coastal stations | Coastal observations for NT | Marine services | Other Formats
Station Details ID: 014274 Name: MCCLUER ISLAND Lat: -11.05 Lon: 132.98 Height: 1.4 m
Data from the previous 72 hours. | See also: Recent months at McCluer Island
Date/Time
CST
Temp

°C
Wind Pressure Rain
since 9am
mm
Weather Cloud Vis
km
Sea
Height
m
Swell
Dir
 
Speed
knots
Gust
knots
hPa Trend Height
m
Period
s
Dir
23/05:00am 21.3 SE 8 11 1013.8 - 0.0 - - - - - - -
23/04:30am 22.1 SE 11 15 1013.7 - 0.0 - - - - - - -
23/04:00am 22.4 SE 12 17 1013.8 - 0.0 - - - - - - -
23/03:30am 22.9 SE 13 16 1013.8 - 0.0 - - - - - - -
23/03:00am 22.6 ESE 15 18 1014.0 - 0.0 - - - - - - -
23/02:30am 23.0 ESE 19 23 1014.1 - 0.0 - - - - - - -
23/02:00am 22.7 ESE 19 25 1014.0 - 0.0 - - - - - - -
23/01:30am 23.7 ESE 16 19 1014.0 - 0.0 - - - - - - -
23/01:00am 23.6 ESE 14 17 1014.1 - 0.0 - - - - - - -
23/12:30am 23.7 E 12 14 1014.4 - 0.0 - - - - - - -
23/12:00am 23.3 ESE 9 12 1014.5 - 0.0 - - - - - - -
 
Date/Time
CST
Temp

°C
Wind Pressure Rain
since 9am
mm
Weather Cloud Vis
km
Sea
Height
m
Swell
Dir
 
Speed
knots
Gust
knots
hPa Trend Height
m
Period
s
Dir
22/11:30pm 23.2 E 8 9 1014.5 - 0.0 - - - - - - -
22/11:00pm 21.7 ESE 7 8 1014.3 - 0.0 - - - - - - -
22/10:30pm 22.1 ESE 7 8 1014.2 - 0.0 - - - - - - -
22/10:00pm 24.1 E 10 11 1014.1 - 0.0 - - - - - - -
22/09:30pm 24.2 E 10 11 1013.9 - 0.0 - - - - - - -
22/09:00pm 24.2 ENE 11 13 1013.7 - 0.0 - - - - - - -
22/08:30pm 24.3 ENE 12 13 1013.5 - 0.0 - - - - - - -
22/08:00pm 24.5 ENE 13 15 1013.1 - 0.0 - - - - - - -
22/07:30pm 24.7 ENE 14 16 1012.7 - 0.0 - - - - - - -
22/07:00pm 24.7 ENE 14 16 1012.3 - 0.0 - - - - - - -
22/06:30pm 24.9 ENE 15 18 1012.0 - 0.0 - - - - - - -
22/06:00pm 25.1 ENE 16 18 1011.8 - 0.0 - - - - - - -
22/05:30pm 25.1 E 16 18 1011.6 - 0.0 - - - - - - -
22/05:00pm 25.0 E 18 20 1011.6 - 0.0 - - - - - - -
22/04:30pm 25.2 E 18 21 1011.7 - 0.0 - - - - - - -
22/04:00pm 25.4 E 18 21 1011.7 - 0.0 - - - - - - -
22/03:30pm 25.7 E 20 22 1011.8 - 0.0 - - - - - - -
22/03:00pm 25.3 E 19 22 1012.2 - 0.0 - - - - - - -
22/02:30pm 25.6 E 19 22 1012.6 - 0.0 - - - - - - -
22/02:00pm 25.7 ESE 20 22 1013.0 - 0.0 - - - - - - -
22/01:30pm 26.5 ESE 19 24 1013.6 - 0.0 - - - - - - -
22/01:00pm 25.3 ESE 19 23 1013.9 - 0.0 - - - - - - -
22/12:30pm 26.0 ESE 20 24 1014.4 - 0.0 - - - - - - -
22/12:00pm 25.9 ESE 19 23 1014.9 - 0.0 - - - - - - -
22/11:30am 26.5 ESE 19 23 1015.3 - 0.0 - - - - - - -
22/11:00am 25.0 ESE 19 23 1015.7 - 0.0 - - - - - - -
22/10:30am 25.1 ESE 18 22 1015.9 - 0.0 - - - - - - -
22/10:00am 25.3 ESE 18 22 1016.2 - 0.0 - - - - - - -
22/09:30am 24.2 ESE 18 21 1016.2 - 0.0 - - - - - - -
22/09:00am 25.0 ESE 16 19 1016.1 - 0.0 - - - - - - -
22/08:30am 24.1 ESE 16 20 1015.9 - 0.0 - - - - - - -
22/08:00am 23.6 ESE 16 19 1015.7 - 0.0 - - - - - - -
22/07:30am 22.9 SE 12 17 1015.5 - 0.0 - - - - - - -
22/07:00am 22.2 SE 12 16 1015.2 - 0.0 - - - - - - -
22/06:30am 22.0 ESE 12 16 1015.0 - 0.0 - - - - - - -
22/06:00am 22.0 SE 12 15 1014.9 - 0.0 - - - - - - -
22/05:30am 22.1 SE 11 16 1014.4 - 0.0 - - - - - - -
22/05:00am 22.9 SE 13 17 1014.1 - 0.0 - - - - - - -
22/04:30am 23.0 SE 14 17 1013.8 - 0.0 - - - - - - -
22/04:00am 23.2 ESE 14 19 1013.9 - 0.0 - - - - - - -
22/03:30am 22.8 ESE 16 19 1013.9 - 0.0 - - - - - - -
22/03:00am 23.5 ESE 18 21 1014.0 - 0.0 - - - - - - -
22/02:30am 23.8 ESE 20 23 1014.5 - 0.0 - - - - - - -
22/02:00am 24.1 ESE 19 24 1014.5 - 0.0 - - - - - - -
22/01:30am 24.1 E 18 21 1014.6 - 0.0 - - - - - - -
22/01:00am 24.3 E 16 18 1014.7 - 0.0 - - - - - - -
22/12:30am 24.5 E 16 18 1014.8 - 0.0 - - - - - - -
22/12:00am 24.4 E 15 17 1014.8 - 0.0 - - - - - - -
 
Date/Time
CST
Temp

°C
Wind Pressure Rain
since 9am
mm
Weather Cloud Vis
km
Sea
Height
m
Swell
Dir
 
Speed
knots
Gust
knots
hPa Trend Height
m
Period
s
Dir
21/11:30pm 24.0 E 11 14 1015.0 - 0.0 - - - - - - -
21/11:00pm 24.2 E 12 13 1015.1 - 0.0 - - - - - - -
21/10:30pm 24.1 E 11 13 1015.0 - 0.0 - - - - - - -
21/10:00pm 24.4 E 12 14 1014.7 - 0.0 - - - - - - -
21/09:30pm 24.6 E 12 14 1014.5 - 0.0 - - - - - - -
21/09:00pm 24.5 E 11 13 1014.2 - 0.0 - - - - - - -
21/08:30pm 24.6 E 12 14 1014.0 - 0.0 - - - - - - -
21/08:00pm 24.7 E 13 15 1013.6 - 0.0 - - - - - - -
21/07:30pm 24.9 ENE 17 19 1013.2 - 0.0 - - - - - - -
21/07:00pm 24.7 ENE 17 19 1012.7 - 0.0 - - - - - - -
21/06:30pm 24.9 ENE 17 19 1012.3 - 0.0 - - - - - - -
21/06:00pm 24.8 ENE 18 21 1012.1 - 0.0 - - - - - - -
21/05:30pm 25.1 ENE 18 21 1011.9 - 0.0 - - - - - - -
21/05:00pm 25.1 E 19 21 1011.8 - 0.0 - - - - - - -
21/04:30pm 25.1 E 20 23 1011.7 - 0.0 - - - - - - -
21/04:00pm 25.2 E 19 22 1012.0 - 0.0 - - - - - - -
21/03:30pm 25.1 E 19 22 1012.3 - 0.0 - - - - - - -
21/03:00pm 25.4 ESE 19 22 1012.7 - 0.0 - - - - - - -
21/02:30pm 25.6 ESE 18 21 1013.2 - 0.0 - - - - - - -
21/02:00pm 26.1 ESE 19 22 1013.3 - 0.0 - - - - - - -
21/01:30pm 25.1 ESE 18 21 1013.7 - 0.0 - - - - - - -
21/01:00pm 25.0 ESE 18 22 1014.1 - 0.0 - - - - - - -
21/12:30pm 25.0 ESE 20 23 1014.6 - 0.0 - - - - - - -
21/12:00pm 25.0 ESE 20 24 1014.9 - 0.0 - - - - - - -
21/11:30am 24.9 ESE 20 24 1015.1 - 0.0 - - - - - - -
21/11:00am 24.6 ESE 18 22 1015.3 - 0.0 - - - - - - -
21/10:30am 24.8 ESE 17 20 1015.6 - 0.0 - - - - - - -
21/10:00am 24.4 ESE 18 22 1015.5 - 0.0 - - - - - - -
21/09:30am 24.7 ESE 17 20 1015.5 - 0.0 - - - - - - -
21/09:00am 24.6 ESE 13 17 1015.3 - 0.0 - - - - - - -
21/08:30am 24.1 SE 13 17 1015.1 - 0.0 - - - - - - -
21/08:00am 23.5 SE 12 15 1014.8 - 0.0 - - - - - - -
21/07:30am 22.7 ESE 11 14 1014.3 - 0.0 - - - - - - -
21/07:00am 22.1 ESE 12 14 1013.8 - 0.0 - - - - - - -
21/06:30am 22.2 ESE 12 15 1013.3 - 0.0 - - - - - - -
21/06:00am 21.7 SE 11 14 1013.0 - 0.0 - - - - - - -
21/05:30am 22.1 ESE 13 18 1012.8 - 0.0 - - - - - - -
21/05:00am 22.3 SE 10 13 1012.7 - 0.0 - - - - - - -
21/04:30am 22.6 SE 10 13 1012.7 - 0.0 - - - - - - -
21/04:00am 23.1 ESE 14 16 1012.5 - 0.0 - - - - - - -
21/03:30am 22.8 ESE 13 16 1012.5 - 0.0 - - - - - - -
21/03:00am 21.9 SE 10 13 1012.7 - 0.0 - - - - - - -
21/02:30am 21.4 SE 8 9 1012.9 - 0.0 - - - - - - -
21/02:00am 21.3 SE 8 9 1013.2 - 0.0 - - - - - - -
21/01:30am 21.5 SE 8 9 1013.4 - 0.0 - - - - - - -
21/01:00am 21.6 SE 8 9 1013.6 - 0.0 - - - - - - -
21/12:30am 21.6 SE 8 9 1013.8 - 0.0 - - - - - - -
21/12:00am 21.7 SE 7 8 1013.9 - 0.0 - - - - - - -
 
Date/Time
CST
Temp

°C
Wind Pressure Rain
since 9am
mm
Weather Cloud Vis
km
Sea
Height
m
Swell
Dir
 
Speed
knots
Gust
knots
hPa Trend Height
m
Period
s
Dir
20/11:30pm 21.6 SE 7 7 1014.0 - 0.0 - - - - - - -
20/11:00pm 21.9 SE 6 7 1014.0 - 0.0 - - - - - - -
20/10:30pm 21.9 SE 5 5 1014.0 - 0.0 - - - - - - -
20/10:00pm 21.7 ESE 5 6 1014.2 - 0.0 - - - - - - -
20/09:30pm 22.3 ESE 5 6 1014.1 - 0.0 - - - - - - -
20/09:00pm 24.1 E 7 8 1014.0 - 0.0 - - - - - - -
20/08:30pm 24.2 ENE 7 9 1014.0 - 0.0 - - - - - - -
20/08:00pm 24.3 ENE 10 11 1013.6 - 0.0 - - - - - - -
20/07:30pm 24.5 ENE 12 14 1013.3 - 0.0 - - - - - - -
20/07:00pm 24.3 ENE 13 15 1013.0 - 0.0 - - - - - - -
20/06:30pm 24.4 ENE 13 15 1012.7 - 0.0 - - - - - - -
20/06:00pm 24.4 ENE 13 15 1012.6 - 0.0 - - - - - - -
20/05:30pm 24.7 ENE 13 15 1012.5 - 0.0 - - - - - - -
20/05:00pm 24.8 ENE 12 14 1012.5 - 0.0 - - - - - - -
20/04:30pm 24.7 ENE 12 14 1012.6 - 0.0 - - - - - - -
20/04:00pm 25.2 E 12 14 1012.7 - 0.0 - - - - - - -
20/03:30pm 25.3 E 12 13 1012.9 - 0.0 - - - - - - -
20/03:00pm 25.4 ESE 12 14 1013.0 - 0.0 - - - - - - -
20/02:30pm 25.4 ESE 12 15 1013.3 - 0.0 - - - - - - -
20/02:00pm 25.1 ESE 12 14 1013.9 - 0.0 - - - - - - -
20/01:30pm 25.2 ESE 12 14 1014.4 - 0.0 - - - - - - -
20/01:00pm 25.1 ESE 11 13 1014.9 - 0.0 - - - - - - -
20/12:30pm 25.2 ESE 10 12 1015.3 - 0.0 - - - - - - -
20/12:00pm 25.3 ESE 11 13 1015.6 - 0.0 - - - - - - -
20/11:30am 24.7 ESE 11 13 1016.0 - 0.0 - - - - - - -
20/11:00am 24.8 ESE 12 13 1016.4 - 0.0 - - - - - - -
20/10:30am 24.9 E 13 15 1016.7 - 0.0 - - - - - - -
20/10:00am 24.2 ESE 12 16 1016.5 - 0.0 - - - - - - -
20/09:30am 24.1 ESE 12 13 1016.3 - 0.0 - - - - - - -
20/09:00am 23.5 ESE 12 15 1016.2 - 0.0 - - - - - - -
20/08:30am 23.4 ESE 12 13 1016.0 - 0.0 - - - - - - -
20/08:00am 23.2 ESE 12 13 1015.8 - 0.0 - - - - - - -
20/07:30am 22.2 ESE 11 14 1015.7 - 0.0 - - - - - - -
20/07:00am 22.7 E 14 15 1015.5 - 0.0 - - - - - - -
20/06:30am 22.3 ESE 14 16 1015.2 - 0.0 - - - - - - -
20/06:00am 22.4 ESE 14 16 1015.1 - 0.0 - - - - - - -
20/05:30am 22.5 ESE 12 17 1014.8 - 0.0 - - - - - - -

Other Formats:

Comma delimited format used in spreadsheet applications
http://www.bom.gov.au/fwo/IDD60701/IDD60701.94135.axf

JavaScript Object Notation format (JSON) in row-major order
http://www.bom.gov.au/fwo/IDD60701/IDD60701.94135.json